createdAt,value
2017-06-01T00:00:05.363Z,19.58
2017-06-01T00:00:24.207Z,19.61
2017-06-01T00:00:44.174Z,19.61
2017-06-01T00:01:03.000Z,19.68
2017-06-01T00:01:22.351Z,19.71
2017-06-01T00:01:41.781Z,19.63
2017-06-01T00:02:01.770Z,19.73
2017-06-01T00:02:20.631Z,19.63
2017-06-01T00:02:40.017Z,19.64
2017-06-01T00:02:59.994Z,19.64
2017-06-01T00:03:19.364Z,19.61
2017-06-01T00:03:38.215Z,19.71
2017-06-01T00:03:57.103Z,19.72
2017-06-01T00:04:17.040Z,19.68
2017-06-01T00:04:37.013Z,19.64
2017-06-01T00:04:56.422Z,19.64
2017-06-01T00:05:15.818Z,19.6
2017-06-01T00:05:35.234Z,19.68
2017-06-01T00:05:55.184Z,19.57
2017-06-01T00:06:15.169Z,19.61
2017-06-01T00:06:35.118Z,19.46
2017-06-01T00:06:54.560Z,19.48
2017-06-01T00:07:14.493Z,19.54
2017-06-01T00:07:33.321Z,19.57
2017-06-01T00:07:52.762Z,19.43
2017-06-01T00:08:12.176Z,19.42
2017-06-01T00:08:31.727Z,19.45
2017-06-01T00:08:51.741Z,19.46
2017-06-01T00:09:11.747Z,19.46
2017-06-01T00:09:31.165Z,19.45
2017-06-01T00:09:50.595Z,19.5
2017-06-01T00:10:10.582Z,19.42
2017-06-01T00:10:28.868Z,19.5
2017-06-01T00:10:48.821Z,19.36
2017-06-01T00:11:08.207Z,19.35
2017-06-01T00:11:26.508Z,19.33
2017-06-01T00:11:46.483Z,19.42
2017-06-01T00:12:06.406Z,19.31
2017-06-01T00:12:25.237Z,19.33
2017-06-01T00:12:45.215Z,19.4
2017-06-01T00:13:05.196Z,19.48
2017-06-01T00:13:23.484Z,19.43
2017-06-01T00:13:43.442Z,19.33
2017-06-01T00:14:03.425Z,19.4
2017-06-01T00:14:23.388Z,19.42
2017-06-01T00:14:42.874Z,19.42
2017-06-01T00:15:02.823Z,19.42
2017-06-01T00:15:22.244Z,19.42
2017-06-01T00:15:42.205Z,19.42
2017-06-01T00:16:02.170Z,19.45
2017-06-01T00:16:21.600Z,19.46
2017-06-01T00:16:40.989Z,19.31
2017-06-01T00:17:00.389Z,19.4
2017-06-01T00:17:19.261Z,19.43
2017-06-01T00:17:38.676Z,19.42
2017-06-01T00:17:58.027Z,19.43
2017-06-01T00:18:17.511Z,19.5
2017-06-01T00:18:37.473Z,19.46
2017-06-01T00:18:56.884Z,19.48
2017-06-01T00:19:16.283Z,19.42
2017-06-01T00:19:36.233Z,19.4
2017-06-01T00:19:55.712Z,19.45
2017-06-01T00:20:15.676Z,19.43
2017-06-01T00:20:35.100Z,19.42
2017-06-01T00:20:55.085Z,19.43
2017-06-01T00:21:14.516Z,19.45
2017-06-01T00:21:33.899Z,19.4
2017-06-01T00:21:53.870Z,19.45
2017-06-01T00:22:13.868Z,19.35
2017-06-01T00:22:33.300Z,19.39
2017-06-01T00:22:53.283Z,19.36
2017-06-01T00:23:13.257Z,19.33
2017-06-01T00:23:32.690Z,19.35
2017-06-01T00:23:52.129Z,19.51
2017-06-01T00:24:11.562Z,19.33
2017-06-01T00:24:31.555Z,19.36
2017-06-01T00:24:51.560Z,19.42
2017-06-01T00:25:10.386Z,19.4
2017-06-01T00:25:29.802Z,19.45
2017-06-01T00:25:49.226Z,19.35
2017-06-01T00:26:09.220Z,19.42
2017-06-01T00:26:29.188Z,19.39
2017-06-01T00:26:48.043Z,19.31
2017-06-01T00:27:08.026Z,19.36
2017-06-01T00:27:27.439Z,19.27
2017-06-01T00:27:47.419Z,19.25
2017-06-01T00:28:06.841Z,19.25
2017-06-01T00:28:25.684Z,19.27
2017-06-01T00:28:45.680Z,19.28
2017-06-01T00:29:05.630Z,19.32
2017-06-01T00:29:25.027Z,19.33
2017-06-01T00:29:44.438Z,19.27
2017-06-01T00:30:04.397Z,19.33
2017-06-01T00:30:24.346Z,19.31
2017-06-01T00:30:43.778Z,19.28
2017-06-01T00:31:03.756Z,19.28
2017-06-01T00:31:22.604Z,19.32
2017-06-01T00:31:41.445Z,19.25
2017-06-01T00:32:01.403Z,19.24
2017-06-01T00:32:20.251Z,19.11
2017-06-01T00:32:39.654Z,19.17
2017-06-01T00:32:59.711Z,19.21
2017-06-01T00:33:19.088Z,19.17
2017-06-01T00:33:39.059Z,19.15
2017-06-01T00:33:59.023Z,19.24
2017-06-01T00:34:18.446Z,19.15
2017-06-01T00:34:37.904Z,19.25
2017-06-01T00:34:57.542Z,19.28
2017-06-01T00:35:17.190Z,19.31
2017-06-01T00:35:37.181Z,19.23
2017-06-01T00:35:56.043Z,19.27
2017-06-01T00:36:15.995Z,19.25
2017-06-01T00:36:35.382Z,19.33
2017-06-01T00:36:54.791Z,19.35
2017-06-01T00:37:14.219Z,19.36
2017-06-01T00:37:34.146Z,19.35
2017-06-01T00:37:53.510Z,19.38
2017-06-01T00:38:12.350Z,19.32
2017-06-01T00:38:31.755Z,19.31
2017-06-01T00:38:51.707Z,19.31
2017-06-01T00:39:11.688Z,19.31
2017-06-01T00:39:31.061Z,19.27
2017-06-01T00:39:51.012Z,19.27
2017-06-01T00:40:10.406Z,19.33
2017-06-01T00:40:29.797Z,19.28
2017-06-01T00:40:49.715Z,19.28
2017-06-01T00:41:09.723Z,19.28
2017-06-01T00:41:29.123Z,19.33
2017-06-01T00:41:49.101Z,19.36
2017-06-01T00:42:08.508Z,19.35
2017-06-01T00:42:27.956Z,19.35
2017-06-01T00:42:47.898Z,19.32
2017-06-01T00:43:07.848Z,19.32
2017-06-01T00:43:27.821Z,19.31
2017-06-01T00:43:47.213Z,19.28
2017-06-01T00:44:07.164Z,19.28
2017-06-01T00:44:27.109Z,19.35
2017-06-01T00:44:47.083Z,19.32
2017-06-01T00:45:07.076Z,19.32
2017-06-01T00:45:26.498Z,19.28
2017-06-01T00:45:46.493Z,19.31
2017-06-01T00:46:06.427Z,19.36
2017-06-01T00:46:26.399Z,19.35
2017-06-01T00:46:45.204Z,19.33
2017-06-01T00:47:05.167Z,19.28
2017-06-01T00:47:25.164Z,19.33
2017-06-01T00:47:45.101Z,19.31
2017-06-01T00:48:03.939Z,19.31
2017-06-01T00:48:23.925Z,19.33
2017-06-01T00:48:43.332Z,19.33
2017-06-01T00:49:03.346Z,19.28
2017-06-01T00:49:23.351Z,19.32
2017-06-01T00:49:43.336Z,19.28
2017-06-01T00:50:03.252Z,19.31
2017-06-01T00:50:22.670Z,19.31
2017-06-01T00:50:42.638Z,19.35
2017-06-01T00:51:02.631Z,19.32
2017-06-01T00:51:22.592Z,19.33
2017-06-01T00:51:41.975Z,19.28
2017-06-01T00:52:01.966Z,19.28
2017-06-01T00:52:22.010Z,19.31
2017-06-01T00:52:41.964Z,19.27
2017-06-01T00:53:01.918Z,19.21
2017-06-01T00:53:21.327Z,19.21
2017-06-01T00:53:41.444Z,19.25
2017-06-01T00:54:01.410Z,19.18
2017-06-01T00:54:20.777Z,19.15
2017-06-01T00:54:40.745Z,19.15
2017-06-01T00:55:00.704Z,19.13
2017-06-01T00:55:20.131Z,19.13
2017-06-01T00:55:39.527Z,19.18
2017-06-01T00:55:59.502Z,19.14
2017-06-01T00:56:18.906Z,19.17
2017-06-01T00:56:38.863Z,19.17
2017-06-01T00:56:58.830Z,19.08
2017-06-01T00:57:18.254Z,19.2
2017-06-01T00:57:37.686Z,19.23
2017-06-01T00:57:57.664Z,19.11
2017-06-01T00:58:17.642Z,19.23
2017-06-01T00:58:37.638Z,19.17
2017-06-01T00:58:56.995Z,19.21
2017-06-01T00:59:16.951Z,19.24
2017-06-01T00:59:36.873Z,19.24
2017-06-01T00:59:59.755Z,19.15
2017-06-01T01:00:21.610Z,19.17
2017-06-01T01:00:41.042Z,19.23
2017-06-01T01:01:01.022Z,19.27
2017-06-01T01:01:20.411Z,19.25
2017-06-01T01:01:39.827Z,19.25
2017-06-01T01:01:59.210Z,19.24
2017-06-01T01:02:19.168Z,19.24
2017-06-01T01:02:38.595Z,19.27
2017-06-01T01:02:58.541Z,19.24
2017-06-01T01:03:17.432Z,19.18
2017-06-01T01:03:36.856Z,19.31
2017-06-01T01:03:56.831Z,19.32
2017-06-01T01:04:16.250Z,19.27
2017-06-01T01:04:35.638Z,19.28
2017-06-01T01:04:55.559Z,19.31
2017-06-01T01:05:14.980Z,19.38
2017-06-01T01:05:34.345Z,19.4
2017-06-01T01:05:54.310Z,19.42
2017-06-01T01:06:14.267Z,19.46
2017-06-01T01:06:33.644Z,19.35
2017-06-01T01:06:53.616Z,19.36
2017-06-01T01:07:13.026Z,19.43
2017-06-01T01:07:47.095Z,19.48
2017-06-01T01:08:07.753Z,19.35
2017-06-01T01:08:41.921Z,19.36
2017-06-01T01:09:01.329Z,19.28
2017-06-01T01:09:20.747Z,19.33
2017-06-01T01:09:40.724Z,19.36
2017-06-01T01:10:00.772Z,19.32
2017-06-01T01:10:20.179Z,19.28
2017-06-01T01:10:40.150Z,19.25
2017-06-01T01:11:00.101Z,19.28
2017-06-01T01:11:18.970Z,19.33
2017-06-01T01:11:38.917Z,19.27
2017-06-01T01:11:58.875Z,19.33
2017-06-01T01:12:19.447Z,19.32
2017-06-01T01:12:39.741Z,19.32
2017-06-01T01:12:59.667Z,19.28
2017-06-01T01:13:19.092Z,19.32
2017-06-01T01:13:38.507Z,19.32
2017-06-01T01:13:58.483Z,19.2
2017-06-01T01:14:17.876Z,19.33
2017-06-01T01:14:37.897Z,19.25
2017-06-01T01:14:57.854Z,19.32
2017-06-01T01:15:17.804Z,19.25
2017-06-01T01:15:37.709Z,19.28
2017-06-01T01:15:57.112Z,19.25
2017-06-01T01:16:16.513Z,19.27
2017-06-01T01:16:35.888Z,19.33
2017-06-01T01:16:55.260Z,19.31
2017-06-01T01:17:15.211Z,19.33
2017-06-01T01:17:35.237Z,19.33
2017-06-01T01:17:59.904Z,19.28
2017-06-01T01:18:19.294Z,19.35
2017-06-01T01:18:38.929Z,19.33
2017-06-01T01:18:58.861Z,19.31
2017-06-01T01:19:18.285Z,19.35
2017-06-01T01:19:38.272Z,19.31
2017-06-01T01:19:58.250Z,19.32
2017-06-01T01:20:17.706Z,19.28
2017-06-01T01:20:37.658Z,19.25
2017-06-01T01:20:57.085Z,19.28
2017-06-01T01:21:16.473Z,19.33
2017-06-01T01:21:35.907Z,19.27
2017-06-01T01:21:55.872Z,19.28
2017-06-01T01:22:15.819Z,19.35
2017-06-01T01:22:35.803Z,19.27
2017-06-01T01:22:55.192Z,19.32
2017-06-01T01:23:14.599Z,19.31
2017-06-01T01:23:34.561Z,19.39
2017-06-01T01:23:54.551Z,19.28
2017-06-01T01:24:13.390Z,19.27
2017-06-01T01:24:32.259Z,19.33
2017-06-01T01:24:52.221Z,19.32
2017-06-01T01:25:11.614Z,19.45
2017-06-01T01:25:31.015Z,19.43
2017-06-01T01:25:50.982Z,19.31
2017-06-01T01:26:10.352Z,19.31
2017-06-01T01:26:28.664Z,19.27
2017-06-01T01:26:48.056Z,19.25
2017-06-01T01:27:07.463Z,19.33
2017-06-01T01:27:26.278Z,19.23
2017-06-01T01:27:45.668Z,19.38
2017-06-01T01:28:05.607Z,19.36
2017-06-01T01:28:25.592Z,19.31
2017-06-01T01:28:44.658Z,19.33
2017-06-01T01:29:04.058Z,19.27
2017-06-01T01:29:23.451Z,19.28
2017-06-01T01:29:43.414Z,19.2
2017-06-01T01:30:03.368Z,19.25
2017-06-01T01:30:22.229Z,19.23
2017-06-01T01:30:42.191Z,19.18
2017-06-01T01:31:01.022Z,19.17
2017-06-01T01:31:20.452Z,19.17
2017-06-01T01:31:39.848Z,19.18
2017-06-01T01:31:59.276Z,19.14
2017-06-01T01:32:19.250Z,19.21
2017-06-01T01:32:38.649Z,19.25
2017-06-01T01:32:58.586Z,19.25
2017-06-01T01:33:18.546Z,19.24
2017-06-01T01:33:37.373Z,19.27
2017-06-01T01:33:57.325Z,19.38
2017-06-01T01:34:17.270Z,19.32
2017-06-01T01:34:37.244Z,19.33
2017-06-01T01:34:56.089Z,19.28
2017-06-01T01:35:16.042Z,19.31
2017-06-01T01:35:35.470Z,19.42
2017-06-01T01:35:55.452Z,19.39
2017-06-01T01:36:14.851Z,19.4
2017-06-01T01:36:34.815Z,19.4
2017-06-01T01:36:54.216Z,19.35
2017-06-01T01:37:14.161Z,19.45
2017-06-01T01:37:34.104Z,19.35
2017-06-01T01:37:54.080Z,19.4
2017-06-01T01:38:13.455Z,19.53
2017-06-01T01:38:32.862Z,19.54
2017-06-01T01:38:52.839Z,19.43
2017-06-01T01:39:12.232Z,19.5
2017-06-01T01:39:31.737Z,19.57
2017-06-01T01:39:51.715Z,19.58
2017-06-01T01:40:11.058Z,19.46
2017-06-01T01:40:30.481Z,19.57
2017-06-01T01:40:50.422Z,19.55
2017-06-01T01:41:09.843Z,19.5
2017-06-01T01:41:29.825Z,19.51
2017-06-01T01:41:49.237Z,19.55
2017-06-01T01:42:08.075Z,19.5
2017-06-01T01:42:27.475Z,19.54
2017-06-01T01:42:47.443Z,19.46
2017-06-01T01:43:06.317Z,19.54
2017-06-01T01:43:25.144Z,19.45
2017-06-01T01:43:44.823Z,19.46
2017-06-01T01:44:04.786Z,19.53
2017-06-01T01:44:24.208Z,19.48
2017-06-01T01:44:44.185Z,19.46
2017-06-01T01:45:02.474Z,19.48
2017-06-01T01:45:21.833Z,19.48
2017-06-01T01:45:40.661Z,19.57
2017-06-01T01:46:00.625Z,19.46
2017-06-01T01:46:20.566Z,19.35
2017-06-01T01:46:40.496Z,19.46
2017-06-01T01:47:00.468Z,19.46
2017-06-01T01:47:19.291Z,19.48
2017-06-01T01:47:38.699Z,19.38
2017-06-01T01:47:58.624Z,19.38
2017-06-01T01:48:18.658Z,19.46
2017-06-01T01:48:38.283Z,19.39
2017-06-01T01:48:58.252Z,19.35
2017-06-01T01:49:16.514Z,19.38
2017-06-01T01:49:35.378Z,19.39
2017-06-01T01:49:55.364Z,19.42
2017-06-01T01:50:14.804Z,19.39
2017-06-01T01:50:34.231Z,19.31
2017-06-01T01:50:54.215Z,19.31
2017-06-01T01:51:13.603Z,19.38
2017-06-01T01:51:33.589Z,19.36
2017-06-01T01:51:53.579Z,19.39
2017-06-01T01:52:12.504Z,19.35
2017-06-01T01:52:32.482Z,19.31
2017-06-01T01:52:52.420Z,19.46
2017-06-01T01:53:11.804Z,19.54
2017-06-01T01:53:31.789Z,19.42
2017-06-01T01:53:51.793Z,19.55
2017-06-01T01:54:10.681Z,19.42
2017-06-01T01:54:30.133Z,19.5
2017-06-01T01:54:49.633Z,19.51
2017-06-01T01:55:09.054Z,19.43
2017-06-01T01:55:28.447Z,19.46
2017-06-01T01:55:47.869Z,19.48
2017-06-01T01:56:08.054Z,19.45
2017-06-01T01:56:27.584Z,19.48
2017-06-01T01:56:46.462Z,19.58
2017-06-01T01:57:05.937Z,19.61
2017-06-01T01:57:25.889Z,19.54
2017-06-01T01:57:45.276Z,19.57
2017-06-01T01:58:05.243Z,19.57
2017-06-01T01:58:24.085Z,19.58
2017-06-01T01:58:44.407Z,19.54
2017-06-01T01:59:04.450Z,19.61
2017-06-01T01:59:24.425Z,19.58
2017-06-01T01:59:44.375Z,19.57
2017-06-01T02:00:04.332Z,19.58
2017-06-01T02:00:24.297Z,19.61
2017-06-01T02:00:43.745Z,19.64
2017-06-01T02:01:02.622Z,19.63
2017-06-01T02:01:22.560Z,19.61
2017-06-01T02:01:41.987Z,19.6
2017-06-01T02:02:00.780Z,19.6
2017-06-01T02:02:20.716Z,19.65
2017-06-01T02:02:41.235Z,19.6
2017-06-01T02:03:15.041Z,19.58
2017-06-01T02:03:34.993Z,19.61
2017-06-01T02:03:54.592Z,19.61
2017-06-01T02:04:13.468Z,19.61
2017-06-01T02:04:46.698Z,19.65
2017-06-01T02:05:05.585Z,19.61
2017-06-01T02:05:24.974Z,19.63
2017-06-01T02:05:44.971Z,19.61
2017-06-01T02:06:03.813Z,19.61
2017-06-01T02:06:23.792Z,19.63
2017-06-01T02:06:43.766Z,19.57
2017-06-01T02:07:03.762Z,19.69
2017-06-01T02:07:23.150Z,19.57
2017-06-01T02:07:43.151Z,19.65
2017-06-01T02:08:03.167Z,19.58
2017-06-01T02:08:22.565Z,19.6
2017-06-01T02:08:42.073Z,19.55
2017-06-01T02:09:02.098Z,19.61
2017-06-01T02:09:22.011Z,19.5
2017-06-01T02:09:41.978Z,19.42
2017-06-01T02:10:01.947Z,19.54
2017-06-01T02:10:21.945Z,19.54
2017-06-01T02:10:41.897Z,19.53
2017-06-01T02:11:01.906Z,19.57
2017-06-01T02:11:21.841Z,19.54
2017-06-01T02:11:41.301Z,19.55
2017-06-01T02:12:01.299Z,19.57
2017-06-01T02:12:20.179Z,19.61
2017-06-01T02:12:39.576Z,19.58
2017-06-01T02:12:59.549Z,19.54
2017-06-01T02:13:19.509Z,19.58
2017-06-01T02:13:38.917Z,19.68
2017-06-01T02:13:58.896Z,19.61
2017-06-01T02:14:18.311Z,19.64
2017-06-01T02:14:38.240Z,19.57
2017-06-01T02:14:57.651Z,19.58
2017-06-01T02:15:17.670Z,19.55
2017-06-01T02:15:37.620Z,19.68
2017-06-01T02:15:57.650Z,19.63
2017-06-01T02:16:17.618Z,19.61
2017-06-01T02:16:37.563Z,19.55
2017-06-01T02:16:57.502Z,19.72
2017-06-01T02:17:16.886Z,19.6
2017-06-01T02:17:36.822Z,19.58
2017-06-01T02:17:56.796Z,19.57
2017-06-01T02:18:16.219Z,19.51
2017-06-01T02:18:36.504Z,19.58
2017-06-01T02:18:56.449Z,19.53
2017-06-01T02:19:16.530Z,19.57
2017-06-01T02:19:36.486Z,19.57
2017-06-01T02:19:56.488Z,19.58
2017-06-01T02:20:16.477Z,19.48
2017-06-01T02:20:35.326Z,19.42
2017-06-01T02:20:55.286Z,19.46
2017-06-01T02:21:15.266Z,19.54
2017-06-01T02:21:37.056Z,19.57
2017-06-01T02:21:57.009Z,19.5
2017-06-01T02:22:15.865Z,19.46
2017-06-01T02:22:35.842Z,19.43
2017-06-01T02:22:54.699Z,19.45
2017-06-01T02:23:14.071Z,19.42
2017-06-01T02:23:34.085Z,19.42
2017-06-01T02:23:54.305Z,19.46
2017-06-01T02:24:13.709Z,19.35
2017-06-01T02:24:33.692Z,19.48
2017-06-01T02:24:53.655Z,19.5
2017-06-01T02:25:13.051Z,19.27
2017-06-01T02:25:33.024Z,19.42
2017-06-01T02:25:53.024Z,19.33
2017-06-01T02:26:12.425Z,19.42
2017-06-01T02:26:31.284Z,19.35
2017-06-01T02:26:51.362Z,19.42
2017-06-01T02:27:10.209Z,19.39
2017-06-01T02:27:30.138Z,19.32
2017-06-01T02:27:50.114Z,19.39
2017-06-01T02:28:10.159Z,19.39
2017-06-01T02:28:30.131Z,19.33
2017-06-01T02:28:49.559Z,19.31
2017-06-01T02:29:08.926Z,19.28
2017-06-01T02:29:28.329Z,19.28
2017-06-01T02:29:47.175Z,19.28
2017-06-01T02:30:07.122Z,19.31
2017-06-01T02:30:26.529Z,19.27
2017-06-01T02:30:45.902Z,19.38
2017-06-01T02:31:05.852Z,19.42
2017-06-01T02:31:25.243Z,19.4
2017-06-01T02:31:44.664Z,19.39
2017-06-01T02:32:04.655Z,19.32
2017-06-01T02:32:23.469Z,19.42
2017-06-01T02:32:42.896Z,19.43
2017-06-01T02:33:02.887Z,19.32
2017-06-01T02:33:22.301Z,19.53
2017-06-01T02:33:41.146Z,19.45
2017-06-01T02:34:01.135Z,19.42
2017-06-01T02:34:20.531Z,19.53
2017-06-01T02:34:40.544Z,19.6
2017-06-01T02:35:00.508Z,19.6
2017-06-01T02:35:19.957Z,19.57
2017-06-01T02:35:39.963Z,19.68
2017-06-01T02:35:59.884Z,19.68
2017-06-01T02:36:27.797Z,19.75
2017-06-01T02:36:47.788Z,19.71
2017-06-01T02:37:07.751Z,19.75
2017-06-01T02:37:25.486Z,19.76
2017-06-01T02:37:44.915Z,19.71
2017-06-01T02:38:04.331Z,19.86
2017-06-01T02:38:23.773Z,19.82
2017-06-01T02:38:43.916Z,19.87
2017-06-01T02:39:03.901Z,19.83
2017-06-01T02:39:22.735Z,19.79
2017-06-01T02:39:42.131Z,19.78
2017-06-01T02:40:02.063Z,19.76
2017-06-01T02:40:22.023Z,19.75
2017-06-01T02:40:41.420Z,19.75
2017-06-01T02:41:00.831Z,19.83
2017-06-01T02:41:20.236Z,19.73
2017-06-01T02:41:39.636Z,19.69
2017-06-01T02:41:58.463Z,19.79
2017-06-01T02:42:17.322Z,19.78
2017-06-01T02:42:36.757Z,19.72
2017-06-01T02:42:56.652Z,19.73
2017-06-01T02:43:16.067Z,19.79
2017-06-01T02:43:35.900Z,19.86
2017-06-01T02:43:55.308Z,19.78
2017-06-01T02:44:14.690Z,19.78
2017-06-01T02:44:34.642Z,19.83
2017-06-01T02:44:54.603Z,19.76
2017-06-01T02:45:13.458Z,19.83
2017-06-01T02:45:32.882Z,19.82
2017-06-01T02:45:52.844Z,19.86
2017-06-01T02:46:12.794Z,19.9
2017-06-01T02:46:32.176Z,19.79
2017-06-01T02:46:52.214Z,19.79
2017-06-01T02:47:11.587Z,19.94
2017-06-01T02:47:30.991Z,19.94
2017-06-01T02:47:50.388Z,19.94
2017-06-01T02:48:10.394Z,19.86
2017-06-01T02:48:29.829Z,19.86
2017-06-01T02:48:49.772Z,19.91
2017-06-01T02:49:09.206Z,19.91
2017-06-01T02:49:28.592Z,19.87
2017-06-01T02:49:48.017Z,19.93
2017-06-01T02:50:07.445Z,19.88
2017-06-01T02:50:26.854Z,19.88
2017-06-01T02:50:46.276Z,19.88
2017-06-01T02:51:06.223Z,19.93
2017-06-01T02:51:26.203Z,19.9
2017-06-01T02:51:45.605Z,19.87
2017-06-01T02:52:05.547Z,19.88
2017-06-01T02:52:25.541Z,19.88
2017-06-01T02:52:45.514Z,19.9
2017-06-01T02:53:04.364Z,19.91
2017-06-01T02:53:23.759Z,19.88
2017-06-01T02:53:44.096Z,19.88
2017-06-01T02:54:03.489Z,19.9
2017-06-01T02:54:22.870Z,19.86
2017-06-01T02:54:41.722Z,19.86
2017-06-01T02:55:01.145Z,19.86
2017-06-01T02:55:20.556Z,19.91
2017-06-01T02:55:40.512Z,19.9
2017-06-01T02:56:00.471Z,19.8
2017-06-01T02:56:19.853Z,19.86
2017-06-01T02:56:39.300Z,19.79
2017-06-01T02:56:58.729Z,19.76
2017-06-01T02:57:18.141Z,19.75
2017-06-01T02:57:37.551Z,19.79
2017-06-01T02:57:56.954Z,19.78
2017-06-01T02:58:16.886Z,19.83
2017-06-01T02:58:36.946Z,19.8
2017-06-01T02:58:56.918Z,19.72
2017-06-01T02:59:16.858Z,19.65
2017-06-01T02:59:36.312Z,19.76
2017-06-01T02:59:56.285Z,19.63
2017-06-01T03:00:16.313Z,19.57
2017-06-01T03:00:35.748Z,19.6
2017-06-01T03:00:54.647Z,19.65
2017-06-01T03:01:14.050Z,19.6
2017-06-01T03:01:34.070Z,19.55
2017-06-01T03:01:53.459Z,19.51
2017-06-01T03:02:12.894Z,19.58
2017-06-01T03:02:32.883Z,19.46
2017-06-01T03:02:51.727Z,19.5
2017-06-01T03:03:11.690Z,19.4
2017-06-01T03:03:31.077Z,19.35
2017-06-01T03:03:51.250Z,19.36
2017-06-01T03:04:12.479Z,19.4
2017-06-01T03:04:33.596Z,19.39
2017-06-01T03:04:53.558Z,19.45
2017-06-01T03:05:12.968Z,19.24
2017-06-01T03:05:32.960Z,19.33
2017-06-01T03:05:52.372Z,19.28
2017-06-01T03:06:11.737Z,19.27
2017-06-01T03:06:31.137Z,19.28
2017-06-01T03:06:51.102Z,19.28
2017-06-01T03:07:10.530Z,19.28
2017-06-01T03:07:30.538Z,19.25
2017-06-01T03:07:50.510Z,19.33
2017-06-01T03:08:09.932Z,19.36
2017-06-01T03:08:29.486Z,19.24
2017-06-01T03:08:49.485Z,19.31
2017-06-01T03:09:09.459Z,19.27
2017-06-01T03:09:28.933Z,19.25
2017-06-01T03:09:49.003Z,19.25
2017-06-01T03:10:08.977Z,19.23
2017-06-01T03:10:34.650Z,19.14
2017-06-01T03:10:54.628Z,19.21
2017-06-01T03:11:14.609Z,19.15
2017-06-01T03:11:34.584Z,19.14
2017-06-01T03:11:54.589Z,19.2
2017-06-01T03:12:14.600Z,19.17
2017-06-01T03:12:34.555Z,19.14
2017-06-01T03:12:54.503Z,19.15
2017-06-01T03:13:13.368Z,19.17
2017-06-01T03:13:32.253Z,19.14
2017-06-01T03:13:52.210Z,19.11
2017-06-01T03:14:11.097Z,19.08
2017-06-01T03:14:30.480Z,19.17
2017-06-01T03:14:49.879Z,19.15
2017-06-01T03:15:09.300Z,19.14
2017-06-01T03:15:27.615Z,19.15
2017-06-01T03:15:47.030Z,19.15
2017-06-01T03:16:06.500Z,19.13
2017-06-01T03:16:25.357Z,19.13
2017-06-01T03:16:44.775Z,19.08
2017-06-01T03:17:04.755Z,19.06
2017-06-01T03:17:23.618Z,19.14
2017-06-01T03:17:43.034Z,19.08
2017-06-01T03:18:02.987Z,19.05
2017-06-01T03:18:23.079Z,19.08
2017-06-01T03:18:43.080Z,19.14
2017-06-01T03:19:02.465Z,19.11
2017-06-01T03:19:22.447Z,19.09
2017-06-01T03:19:42.403Z,18.99
2017-06-01T03:20:02.345Z,19.17
2017-06-01T03:20:21.766Z,19.11
2017-06-01T03:20:41.761Z,19.13
2017-06-01T03:21:01.200Z,19.13
2017-06-01T03:21:20.608Z,19.09
2017-06-01T03:21:39.985Z,19.09
2017-06-01T03:21:59.923Z,19.15
2017-06-01T03:22:19.881Z,19.2
2017-06-01T03:22:39.852Z,19.2
2017-06-01T03:22:59.263Z,19.15
2017-06-01T03:23:18.080Z,19.15
2017-06-01T03:23:38.019Z,19.09
2017-06-01T03:23:57.438Z,19.2
2017-06-01T03:24:16.265Z,19.15
2017-06-01T03:24:35.644Z,19.11
2017-06-01T03:24:55.108Z,19.14
2017-06-01T03:25:15.098Z,19.2
2017-06-01T03:25:35.032Z,19.27
2017-06-01T03:25:54.996Z,19.25
2017-06-01T03:26:14.991Z,19.27
2017-06-01T03:26:34.963Z,19.33
2017-06-01T03:26:54.398Z,19.27
2017-06-01T03:27:14.380Z,19.31
2017-06-01T03:27:33.823Z,19.25
2017-06-01T03:27:53.775Z,19.32
2017-06-01T03:28:13.837Z,19.33
2017-06-01T03:28:33.264Z,19.25
2017-06-01T03:28:53.195Z,19.32
2017-06-01T03:29:13.171Z,19.33
2017-06-01T03:29:33.138Z,19.28
2017-06-01T03:29:53.114Z,19.23
2017-06-01T03:30:13.090Z,19.23
2017-06-01T03:30:32.484Z,19.27
2017-06-01T03:30:51.884Z,19.25
2017-06-01T03:31:11.886Z,19.32
2017-06-01T03:31:31.444Z,19.2
2017-06-01T03:31:50.834Z,19.15
2017-06-01T03:32:10.830Z,19.17
2017-06-01T03:32:30.247Z,19.18
2017-06-01T03:32:49.617Z,19.11
2017-06-01T03:33:09.557Z,19.06
2017-06-01T03:33:29.516Z,19.02
2017-06-01T03:33:49.907Z,19.14
2017-06-01T03:34:09.883Z,19.2
2017-06-01T03:34:29.857Z,19.15
2017-06-01T03:34:49.844Z,19.18
2017-06-01T03:35:09.823Z,19.11
2017-06-01T03:35:28.650Z,19.15
2017-06-01T03:35:48.602Z,19.18
2017-06-01T03:36:08.031Z,19.15
2017-06-01T03:36:27.424Z,19.2
2017-06-01T03:36:46.825Z,19.15
2017-06-01T03:37:06.838Z,19.17
2017-06-01T03:37:26.286Z,19.13
2017-06-01T03:37:46.246Z,19.13
2017-06-01T03:38:05.687Z,19.2
2017-06-01T03:38:25.125Z,19.25
2017-06-01T03:38:44.533Z,19.14
2017-06-01T03:39:04.497Z,19.17
2017-06-01T03:39:23.324Z,19.2
2017-06-01T03:39:42.736Z,19.11
2017-06-01T03:40:02.742Z,19.11
2017-06-01T03:40:22.173Z,19.15
2017-06-01T03:40:42.138Z,19.15
2017-06-01T03:41:02.103Z,19.09
2017-06-01T03:41:21.508Z,19.13
2017-06-01T03:41:41.480Z,19.14
2017-06-01T03:42:01.469Z,19.09
2017-06-01T03:42:21.461Z,19.17
2017-06-01T03:42:41.388Z,19.23
2017-06-01T03:43:01.335Z,19.21
2017-06-01T03:43:20.183Z,19.15
2017-06-01T03:43:40.142Z,19.18
2017-06-01T03:44:00.128Z,19.11
2017-06-01T03:44:20.121Z,19.2
2017-06-01T03:44:39.541Z,19.14
2017-06-01T03:44:59.508Z,19.09
2017-06-01T03:45:18.961Z,19.11
2017-06-01T03:45:38.947Z,19.09
2017-06-01T03:45:58.889Z,19.18
2017-06-01T03:46:18.851Z,19.15
2017-06-01T03:46:38.819Z,19.18
2017-06-01T03:46:58.199Z,19.18
2017-06-01T03:47:17.640Z,19.06
2017-06-01T03:47:37.047Z,19.17
2017-06-01T03:47:57.021Z,19.08
2017-06-01T03:48:16.427Z,19.15
2017-06-01T03:48:35.821Z,19.09
2017-06-01T03:48:55.222Z,18.94
2017-06-01T03:49:14.623Z,18.99
2017-06-01T03:49:34.106Z,18.99
2017-06-01T03:49:54.065Z,19.05
2017-06-01T03:50:12.916Z,18.99
2017-06-01T03:50:32.892Z,19.01
2017-06-01T03:50:52.893Z,19.11
2017-06-01T03:51:12.852Z,19.06
2017-06-01T03:51:32.268Z,19.2
2017-06-01T03:51:52.321Z,19.17
2017-06-01T03:52:12.314Z,19.11
2017-06-01T03:52:31.710Z,19.23
2017-06-01T03:52:50.550Z,19.24
2017-06-01T03:53:09.960Z,19.23
2017-06-01T03:53:28.770Z,19.27
2017-06-01T03:53:48.201Z,19.25
2017-06-01T03:54:07.593Z,19.18
2017-06-01T03:54:26.422Z,19.2
2017-06-01T03:54:45.268Z,19.11
2017-06-01T03:55:04.651Z,19.11
2017-06-01T03:55:24.058Z,19.15
2017-06-01T03:55:44.064Z,19.14
2017-06-01T03:56:02.915Z,19.21
2017-06-01T03:56:22.329Z,19.23
2017-06-01T03:56:41.739Z,19.21
2017-06-01T03:57:01.686Z,19.28
2017-06-01T03:57:21.094Z,19.32
2017-06-01T03:57:41.089Z,19.35
2017-06-01T03:58:01.099Z,19.33
2017-06-01T03:58:20.597Z,19.32
2017-06-01T03:58:40.652Z,19.33
2017-06-01T03:59:00.596Z,19.25
2017-06-01T03:59:20.005Z,19.21
2017-06-01T03:59:39.452Z,19.32
2017-06-01T03:59:58.867Z,19.23
2017-06-01T04:00:18.246Z,19.31
2017-06-01T04:00:38.197Z,19.31
2017-06-01T04:00:58.160Z,19.25
2017-06-01T04:01:18.168Z,19.25
2017-06-01T04:01:38.165Z,19.33
2017-06-01T04:01:58.126Z,19.36
2017-06-01T04:02:16.952Z,19.35
2017-06-01T04:02:36.870Z,19.33
2017-06-01T04:02:56.854Z,19.31
2017-06-01T04:03:15.728Z,19.32
2017-06-01T04:03:35.130Z,19.32
2017-06-01T04:03:55.082Z,19.32
2017-06-01T04:04:15.009Z,19.32
2017-06-01T04:04:34.991Z,19.32
2017-06-01T04:04:54.413Z,19.28
2017-06-01T04:05:12.691Z,19.23
2017-06-01T04:05:32.123Z,19.23
2017-06-01T04:05:52.099Z,19.2
2017-06-01T04:06:12.061Z,19.14
2017-06-01T04:06:34.538Z,19.23
2017-06-01T04:06:54.536Z,19.11
2017-06-01T04:07:13.967Z,19.15
2017-06-01T04:07:33.325Z,19.14
2017-06-01T04:07:53.278Z,19.14
2017-06-01T04:08:12.683Z,19.11
2017-06-01T04:08:32.085Z,19.15
2017-06-01T04:08:52.114Z,19.05
2017-06-01T04:09:12.007Z,19.14
2017-06-01T04:09:30.983Z,18.97
2017-06-01T04:09:50.977Z,18.94
2017-06-01T04:10:10.367Z,18.98
2017-06-01T04:10:30.357Z,18.97
2017-06-01T04:10:49.827Z,18.95
2017-06-01T04:11:09.797Z,19.01
2017-06-01T04:11:29.193Z,18.97
2017-06-01T04:11:48.030Z,18.94
2017-06-01T04:12:08.103Z,18.99
2017-06-01T04:12:28.210Z,19.06
2017-06-01T04:12:47.700Z,19.01
2017-06-01T04:13:07.079Z,18.99
2017-06-01T04:13:26.491Z,18.94
2017-06-01T04:13:46.418Z,18.97
2017-06-01T04:14:06.391Z,18.9
2017-06-01T04:14:26.382Z,18.77
2017-06-01T04:14:45.765Z,18.89